Time;durP1;ratioP1;P1;durP2;ratioP2;P2;SDS_P1;SDS_P2;PMS_P1;PMS_P2;Temp;Humidity;BMP_temperature;BMP_pressure;BME280_temperature;BME280_humidity;BME280_pressure;Samples;Min_cycle;Max_cycle;Signal;HPM_P1;HPM_P2
2022/01/31 00:01:24;;;;;;;8.30;3.35;;;17.80;48.70;;;;;;4986499;28;107417;-73
2022/01/31 00:03:50;;;;;;;9.07;3.40;;;17.70;48.80;;;;;;4987796;28;99377;-73
2022/01/31 00:06:16;;;;;;;10.48;4.00;;;17.80;48.80;;;;;;4990838;28;98550;-72
2022/01/31 00:08:42;;;;;;;9.38;3.75;;;17.70;48.80;;;;;;4991480;28;98557;-74
2022/01/31 00:11:08;;;;;;;7.50;3.17;;;17.70;48.80;;;;;;4989568;28;100210;-73
2022/01/31 00:13:44;;;;;;;8.35;3.50;;;17.60;48.70;;;;;;4991301;28;98855;-73
2022/01/31 00:16:15;;;;;;;9.20;3.42;;;17.70;48.80;;;;;;4990276;28;98997;-73
2022/01/31 00:18:42;;;;;;;10.85;4.32;;;17.60;48.60;;;;;;4990765;28;98533;-74
2022/01/31 00:21:08;;;;;;;8.98;3.67;;;17.60;48.70;;;;;;4989197;28;100152;-74
2022/01/31 00:23:34;;;;;;;10.18;3.47;;;17.60;49.00;;;;;;4989968;28;99359;-72
2022/01/31 00:26:00;;;;;;;8.88;3.40;;;17.60;48.70;;;;;;4990118;28;99028;-74
2022/01/31 00:28:25;;;;;;;9.00;3.72;;;17.60;48.70;;;;;;4989963;28;98597;-74
2022/01/31 00:30:53;;;;;;;8.35;3.70;;;17.50;48.70;;;;;;4989792;28;99645;-73
2022/01/31 00:33:19;;;;;;;9.77;3.67;;;17.50;48.80;;;;;;4990540;28;99569;-73
2022/01/31 00:35:48;;;;;;;7.93;3.70;;;17.50;48.70;;;;;;4994732;28;99067;-73
2022/01/31 00:38:14;;;;;;;8.20;3.42;;;17.50;48.60;;;;;;4997466;28;98158;-74
2022/01/31 00:40:41;;;;;;;7.45;3.50;;;17.50;48.80;;;;;;4994748;28;99068;-73
2022/01/31 00:43:12;;;;;;;9.30;3.65;;;17.50;48.70;;;;;;4991806;28;101674;-73
2022/01/31 00:45:45;;;;;;;8.45;3.65;;;17.50;48.70;;;;;;4990164;28;99879;-73
2022/01/31 00:48:18;;;;;;;9.32;3.70;;;17.50;48.60;;;;;;4972854;28;99019;-73
2022/01/31 00:50:47;;;;;;;8.43;3.50;;;17.40;48.70;;;;;;4989075;28;101060;-74
2022/01/31 00:53:13;;;;;;;8.40;3.78;;;17.40;48.70;;;;;;4988597;28;99468;-73
2022/01/31 00:55:38;;;;;;;9.00;3.70;;;17.40;48.70;;;;;;4989742;28;99016;-73
2022/01/31 00:58:04;;;;;;;9.60;3.60;;;17.40;48.80;;;;;;4990259;28;98892;-74
2022/01/31 01:00:31;;;;;;;8.50;3.60;;;17.40;48.70;;;;;;4989761;28;99341;-73
2022/01/31 01:02:57;;;;;;;7.53;3.30;;;17.40;48.70;;;;;;4971682;28;99541;-73
2022/01/31 01:05:22;;;;;;;9.65;3.85;;;17.40;48.70;;;;;;4989029;28;98992;-73
2022/01/31 01:07:50;;;;;;;11.82;3.97;;;17.30;48.70;;;;;;4989754;28;99119;-74
2022/01/31 01:10:18;;;;;;;7.25;3.53;;;17.40;48.90;;;;;;4988461;28;99935;-73
2022/01/31 01:12:47;;;;;;;7.03;3.40;;;17.30;48.80;;;;;;4988920;28;99952;-74
2022/01/31 01:15:15;;;;;;;8.00;4.05;;;17.30;48.80;;;;;;4989000;28;98999;-74
2022/01/31 01:17:41;;;;;;;9.77;3.53;;;17.30;48.90;;;;;;4989944;28;98932;-73
2022/01/31 01:20:07;;;;;;;8.57;3.50;;;17.30;48.90;;;;;;4988574;28;99817;-73
2022/01/31 01:22:35;;;;;;;7.32;3.63;;;17.30;48.90;;;;;;4989740;28;99652;-73
2022/01/31 01:25:04;;;;;;;7.28;3.42;;;17.30;48.90;;;;;;4990653;28;98603;-73
2022/01/31 01:27:30;;;;;;;6.85;3.10;;;17.30;48.90;;;;;;4990820;28;98365;-73
2022/01/31 01:29:56;;;;;;;8.63;3.70;;;17.30;48.90;;;;;;4989152;28;100512;-74
2022/01/31 01:32:24;;;;;;;7.22;3.35;;;17.30;49.00;;;;;;4989334;28;99663;-74
2022/01/31 01:34:50;;;;;;;8.85;3.75;;;17.20;48.90;;;;;;4988501;28;99760;-74
2022/01/31 01:37:16;;;;;;;7.22;3.40;;;17.30;49.00;;;;;;4989513;28;98708;-74
2022/01/31 01:39:42;;;;;;;8.35;3.85;;;17.20;49.40;;;;;;4988800;28;100338;-74
2022/01/31 01:42:08;;;;;;;6.82;3.28;;;17.20;49.00;;;;;;4970791;28;100499;-74
2022/01/31 01:44:47;;;;;;;9.70;3.53;;;17.20;48.90;;;;;;4989475;28;99781;-73
2022/01/31 01:47:22;;;;;;;7.25;3.20;;;17.20;48.90;;;;;;4989539;28;98891;-74
2022/01/31 01:49:49;;;;;;;8.27;3.00;;;17.20;48.90;;;;;;4988918;28;99576;-74
2022/01/31 01:52:16;;;;;;;7.25;3.13;;;17.20;49.00;;;;;;4988856;28;101288;-74
2022/01/31 01:54:41;;;;;;;7.07;3.22;;;17.20;49.00;;;;;;4989705;28;98655;-74
2022/01/31 01:57:07;;;;;;;6.95;2.97;;;17.10;48.90;;;;;;4989838;28;98740;-74
2022/01/31 01:59:35;;;;;;;4.88;2.70;;;17.10;48.90;;;;;;4988309;28;100266;-74
2022/01/31 02:02:04;;;;;;;7.65;3.05;;;17.20;49.00;;;;;;4989413;28;100388;-74
2022/01/31 02:04:33;;;;;;;7.22;2.92;;;17.10;48.90;;;;;;4989512;28;98536;-74
2022/01/31 02:06:58;;;;;;;8.63;3.10;;;17.10;48.90;;;;;;4988340;28;98984;-73
2022/01/31 02:09:27;;;;;;;7.05;3.00;;;17.10;49.00;;;;;;4987419;28;99910;-74
2022/01/31 02:11:54;;;;;;;5.68;3.00;;;17.10;48.90;;;;;;4988179;28;99878;-73
2022/01/31 02:14:21;;;;;;;6.35;2.75;;;17.10;48.90;;;;;;4989271;28;99107;-73
2022/01/31 02:16:49;;;;;;;7.68;2.88;;;17.10;48.90;;;;;;4990550;28;98201;-72
2022/01/31 02:19:17;;;;;;;6.57;3.20;;;17.10;49.10;;;;;;4991110;28;101244;-73
2022/01/31 02:21:44;;;;;;;6.43;3.08;;;17.00;49.00;;;;;;4991916;28;99342;-73
2022/01/31 02:24:10;;;;;;;6.32;2.60;;;17.10;49.00;;;;;;4990993;28;99261;-74
2022/01/31 02:26:36;;;;;;;5.70;2.78;;;17.00;49.00;;;;;;4989561;28;98519;-73
2022/01/31 02:29:02;;;;;;;6.60;2.78;;;17.00;49.00;;;;;;4988781;28;99574;-74
2022/01/31 02:31:28;;;;;;;5.13;2.40;;;17.00;49.00;;;;;;4988064;28;99266;-73
2022/01/31 02:33:54;;;;;;;5.97;2.60;;;17.00;49.10;;;;;;4988090;28;98755;-74
2022/01/31 02:36:20;;;;;;;5.13;2.40;;;17.00;49.10;;;;;;4988555;28;99098;-74
2022/01/31 02:38:45;;;;;;;4.97;2.35;;;17.00;49.10;;;;;;4988237;28;99950;-73
2022/01/31 02:41:11;;;;;;;4.63;2.38;;;17.00;49.10;;;;;;4988774;28;98909;-73
2022/01/31 02:43:37;;;;;;;7.80;2.58;;;17.00;49.10;;;;;;4988635;28;99191;-73
2022/01/31 02:46:03;;;;;;;4.18;2.50;;;17.00;49.10;;;;;;4989109;28;98617;-74
2022/01/31 02:48:33;;;;;;;5.80;2.50;;;17.00;49.10;;;;;;4986859;28;100654;-73
2022/01/31 02:50:59;;;;;;;5.75;2.65;;;17.00;49.10;;;;;;4986943;28;99702;-73
2022/01/31 02:53:26;;;;;;;6.55;2.63;;;16.90;49.10;;;;;;4988057;28;98998;-73
2022/01/31 02:55:55;;;;;;;5.90;2.40;;;17.00;49.20;;;;;;4989273;28;98871;-74
2022/01/31 02:58:23;;;;;;;4.75;2.10;;;16.90;49.20;;;;;;4988122;28;99395;-73
2022/01/31 03:00:48;;;;;;;4.55;2.40;;;16.90;49.20;;;;;;4988283;28;98985;-73
2022/01/31 03:03:14;;;;;;;6.40;2.38;;;16.90;49.30;;;;;;4987457;28;98958;-73
2022/01/31 03:05:40;;;;;;;3.97;2.20;;;16.90;49.20;;;;;;4988684;28;99069;-73
2022/01/31 03:08:07;;;;;;;4.88;2.25;;;16.90;49.30;;;;;;4987593;28;101616;-74
2022/01/31 03:10:35;;;;;;;5.70;2.17;;;16.90;49.20;;;;;;4988223;28;99542;-74
2022/01/31 03:13:01;;;;;;;5.82;2.20;;;16.90;49.30;;;;;;4988044;28;99348;-73
2022/01/31 03:15:27;;;;;;;6.00;2.55;;;16.90;49.40;;;;;;4988532;28;98821;-73
2022/01/31 03:17:53;;;;;;;6.95;2.75;;;16.90;49.30;;;;;;4986398;28;101149;-73
2022/01/31 03:20:21;;;;;;;4.13;2.03;;;16.90;49.40;;;;;;4987920;28;100710;-73
2022/01/31 03:22:47;;;;;;;9.00;2.70;;;16.90;49.40;;;;;;4987409;28;99687;-73
2022/01/31 03:25:13;;;;;;;5.72;2.42;;;16.80;49.30;;;;;;4986861;28;99090;-74
2022/01/31 03:27:40;;;;;;;6.82;2.70;;;16.90;49.40;;;;;;4988117;28;99554;-74
2022/01/31 03:30:09;;;;;;;5.28;2.25;;;16.90;49.40;;;;;;4988194;28;99194;-73
2022/01/31 03:32:34;;;;;;;4.60;1.90;;;16.90;49.40;;;;;;4986779;28;98646;-73
2022/01/31 03:35:01;;;;;;;5.65;2.17;;;16.80;49.40;;;;;;4988303;28;98881;-73
2022/01/31 03:37:28;;;;;;;5.57;2.30;;;16.80;49.40;;;;;;4986147;28;100843;-73
2022/01/31 03:39:54;;;;;;;4.18;2.13;;;16.80;49.50;;;;;;4990324;28;100606;-73
2022/01/31 03:42:19;;;;;;;5.25;2.20;;;16.80;49.50;;;;;;4991681;28;98878;-73
2022/01/31 03:44:47;;;;;;;6.45;2.25;;;16.80;49.50;;;;;;4991754;28;98991;-74
2022/01/31 03:47:21;;;;;;;4.50;2.05;;;16.80;49.50;;;;;;4990097;28;101027;-75
2022/01/31 03:49:46;;;;;;;5.97;2.10;;;16.80;49.50;;;;;;4991129;28;98833;-73
2022/01/31 03:52:12;;;;;;;7.45;2.47;;;16.80;49.50;;;;;;4989313;28;99178;-73
2022/01/31 03:54:38;;;;;;;6.10;2.17;;;16.80;49.60;;;;;;4990260;28;97933;-73
2022/01/31 03:57:03;;;;;;;5.13;1.98;;;16.80;49.60;;;;;;4990537;28;101219;-73
2022/01/31 03:59:29;;;;;;;5.82;2.10;;;16.70;49.50;;;;;;4990832;28;101351;-73
2022/01/31 05:43:34;;;;;;;4.38;2.00;;;16.50;49.70;;;;;;5257327;22;101661;-70
2022/01/31 05:46:00;;;;;;;4.57;1.98;;;16.50;49.80;;;;;;4969853;28;99925;-70
2022/01/31 05:48:27;;;;;;;7.32;2.15;;;16.50;49.90;;;;;;4971062;28;99009;-70
2022/01/31 05:50:53;;;;;;;5.43;2.03;;;16.50;49.80;;;;;;4973072;28;99726;-70
2022/01/31 05:53:19;;;;;;;5.82;2.50;;;16.40;49.70;;;;;;4971522;28;99053;-69
2022/01/31 05:55:45;;;;;;;5.35;1.95;;;16.40;49.70;;;;;;4971600;28;99132;-70
2022/01/31 05:58:12;;;;;;;5.95;2.15;;;16.40;49.70;;;;;;4971314;28;100931;-70
2022/01/31 06:00:38;;;;;;;6.68;2.00;;;16.40;49.80;;;;;;4971465;28;98970;-70
2022/01/31 06:03:04;;;;;;;5.50;1.73;;;16.50;50.00;;;;;;4969573;28;99774;-70
2022/01/31 06:05:30;;;;;;;4.32;1.80;;;16.50;49.90;;;;;;4970202;28;99825;-70
2022/01/31 06:07:56;;;;;;;4.63;1.67;;;16.70;49.80;;;;;;4970794;28;99799;-70
2022/01/31 06:10:23;;;;;;;5.50;1.65;;;16.80;49.50;;;;;;4970337;28;99174;-70
2022/01/31 06:12:52;;;;;;;4.70;1.80;;;17.00;49.20;;;;;;4969148;28;98698;-71
2022/01/31 06:15:18;;;;;;;5.65;1.77;;;17.30;48.70;;;;;;4969469;28;100875;-68
2022/01/31 06:17:45;;;;;;;6.38;1.65;;;17.50;48.40;;;;;;4970040;28;100941;-67
2022/01/31 06:20:11;;;;;;;6.68;1.60;;;17.70;48.10;;;;;;4971043;28;99153;-68
2022/01/31 06:22:47;;;;;;;5.03;1.67;;;17.90;48.00;;;;;;4971815;28;99046;-69
2022/01/31 06:25:13;;;;;;;4.07;1.75;;;18.00;47.60;;;;;;4971938;28;99107;-69
2022/01/31 06:27:40;;;;;;;5.72;1.63;;;18.20;47.30;;;;;;4970352;28;99493;-71
2022/01/31 06:30:06;;;;;;;4.68;1.52;;;18.40;47.20;;;;;;4970968;28;98617;-69
2022/01/31 06:32:32;;;;;;;4.82;1.70;;;18.50;47.00;;;;;;4971019;28;98068;-70
2022/01/31 06:34:59;;;;;;;5.63;1.67;;;18.70;46.90;;;;;;4952133;28;113959;-70
2022/01/31 06:37:28;;;;;;;4.93;1.60;;;18.70;46.70;;;;;;4969532;28;98605;-70
2022/01/31 06:39:55;;;;;;;7.55;1.70;;;18.80;47.60;;;;;;4970674;28;99316;-70
2022/01/31 06:42:21;;;;;;;4.78;1.60;;;18.80;46.60;;;;;;4974186;28;98518;-69
2022/01/31 06:44:46;;;;;;;4.47;1.75;;;18.90;46.70;;;;;;4989257;28;100578;-69
2022/01/31 06:47:13;;;;;;;5.13;1.42;;;18.90;46.90;;;;;;4989636;28;105522;-71
2022/01/31 06:49:39;;;;;;;7.40;1.85;;;18.80;46.80;;;;;;4989386;28;98726;-71
2022/01/31 06:52:05;;;;;;;8.10;1.77;;;18.80;47.00;;;;;;4990368;28;98963;-71
2022/01/31 06:54:31;;;;;;;7.82;1.70;;;18.80;47.10;;;;;;4989766;28;99258;-71
2022/01/31 06:56:58;;;;;;;11.82;1.85;;;18.80;47.20;;;;;;4990926;28;98702;-70
2022/01/31 06:59:23;;;;;;;9.43;2.00;;;18.70;47.20;;;;;;4989917;28;98539;-69
2022/01/31 07:01:49;;;;;;;6.22;1.60;;;18.70;47.20;;;;;;4991103;28;99408;-70
2022/01/31 07:04:15;;;;;;;7.05;1.80;;;18.70;47.30;;;;;;4990127;28;101307;-71
2022/01/31 07:06:41;;;;;;;6.68;1.70;;;18.70;47.40;;;;;;4990984;28;99513;-70
2022/01/31 07:09:06;;;;;;;17.40;2.40;;;18.70;47.50;;;;;;4990300;28;98557;-70
2022/01/31 07:11:37;;;;;;;6.47;1.80;;;18.70;47.50;;;;;;4989970;28;98884;-71
2022/01/31 07:14:13;;;;;;;7.32;1.92;;;18.70;48.70;;;;;;4989092;28;99085;-72
2022/01/31 07:16:39;;;;;;;10.60;1.83;;;18.70;47.80;;;;;;4989987;28;100430;-70
2022/01/31 07:19:08;;;;;;;10.45;1.80;;;18.60;48.00;;;;;;4991810;28;99256;-72
2022/01/31 07:21:45;;;;;;;6.35;2.00;;;18.60;48.20;;;;;;4991648;28;97926;-72
2022/01/31 07:26:36;;;;;;;7.65;1.95;;;18.50;48.60;;;;;;4989256;28;99137;-72
2022/01/31 07:29:03;;;;;;;11.10;1.80;;;18.50;48.80;;;;;;4972302;28;99694;-72
2022/01/31 07:31:30;;;;;;;7.07;1.63;;;18.40;48.90;;;;;;4989955;28;98995;-72
2022/01/31 07:33:55;;;;;;;6.75;1.88;;;18.40;48.90;;;;;;4990148;28;99283;-72
2022/01/31 07:36:23;;;;;;;9.85;1.90;;;18.30;49.00;;;;;;4987956;28;100982;-72
2022/01/31 07:38:48;;;;;;;10.73;1.70;;;18.20;49.00;;;;;;4989527;28;98622;-72
2022/01/31 07:41:14;;;;;;;7.28;2.15;;;18.20;49.10;;;;;;4988899;28;98821;-72
2022/01/31 07:43:43;;;;;;;5.35;1.70;;;18.10;49.00;;;;;;4989517;28;100424;-73
2022/01/31 07:46:12;;;;;;;8.10;2.00;;;18.10;49.20;;;;;;4990388;28;100417;-73
2022/01/31 07:48:37;;;;;;;5.45;1.58;;;18.00;49.10;;;;;;4989454;28;98808;-73
2022/01/31 07:51:03;;;;;;;5.45;1.73;;;18.00;49.20;;;;;;4973869;28;98546;-72
2022/01/31 07:53:28;;;;;;;9.95;1.60;;;18.00;49.20;;;;;;4993434;28;99704;-73
2022/01/31 07:55:54;;;;;;;7.22;1.70;;;17.90;49.30;;;;;;4990866;28;101629;-73
2022/01/31 07:58:20;;;;;;;4.30;1.40;;;17.90;49.30;;;;;;4991259;28;100053;-73
2022/01/31 08:00:46;;;;;;;10.02;1.95;;;17.80;49.30;;;;;;4989217;28;98962;-73
2022/01/31 08:03:12;;;;;;;6.68;1.95;;;17.80;49.30;;;;;;4988217;28;100117;-73
2022/01/31 08:05:38;;;;;;;8.73;2.15;;;17.80;50.40;;;;;;4989585;28;99004;-73
2022/01/31 08:08:04;;;;;;;7.93;2.28;;;17.70;49.40;;;;;;4987972;28;98649;-72
2022/01/31 08:10:35;;;;;;;7.78;2.13;;;17.70;49.50;;;;;;4990558;28;98331;-73
2022/01/31 08:13:02;;;;;;;6.13;1.85;;;17.70;49.60;;;;;;4986893;28;100992;-71
2022/01/31 08:15:29;;;;;;;4.50;1.70;;;17.60;49.70;;;;;;4988632;28;98799;-72
2022/01/31 08:17:56;;;;;;;6.43;2.00;;;17.60;49.70;;;;;;4988459;28;99835;-72
2022/01/31 08:20:21;;;;;;;7.78;2.42;;;17.60;49.70;;;;;;4989562;28;98486;-72
2022/01/31 08:22:47;;;;;;;9.07;2.22;;;17.50;49.80;;;;;;4987973;28;103071;-72
2022/01/31 08:25:15;;;;;;;9.90;2.40;;;17.50;49.80;;;;;;4988485;28;99267;-71
2022/01/31 08:27:45;;;;;;;6.80;2.28;;;17.40;49.70;;;;;;4991648;28;99092;-72
2022/01/31 08:30:17;;;;;;;7.13;2.10;;;17.40;49.80;;;;;;4991381;28;98602;-72
2022/01/31 08:32:58;;;;;;;7.03;2.08;;;17.40;49.90;;;;;;4991527;28;99294;-73
2022/01/31 08:38:09;;;;;;;8.82;2.22;;;17.30;50.00;;;;;;4993258;28;98666;-70
2022/01/31 08:40:35;;;;;;;7.22;2.05;;;17.20;50.00;;;;;;4973315;28;98702;-72
2022/01/31 08:43:01;;;;;;;7.63;2.10;;;17.20;50.00;;;;;;4990407;28;99345;-72
2022/01/31 08:45:26;;;;;;;7.00;2.05;;;17.20;50.10;;;;;;4991171;28;99701;-72
2022/01/31 08:47:52;;;;;;;9.48;2.50;;;17.20;50.10;;;;;;4989734;28;99086;-73
2022/01/31 08:50:19;;;;;;;5.68;1.75;;;17.20;50.20;;;;;;4991580;28;98695;-73
2022/01/31 08:52:44;;;;;;;6.15;2.30;;;17.10;50.20;;;;;;4991614;28;99166;-73
2022/01/31 08:55:11;;;;;;;7.03;2.42;;;17.10;50.30;;;;;;4991697;28;100198;-73
2022/01/31 08:57:38;;;;;;;8.57;2.20;;;17.10;50.20;;;;;;4991653;28;99996;-73
2022/01/31 09:00:06;;;;;;;8.82;2.22;;;17.10;50.20;;;;;;4991947;28;98068;-71
2022/01/31 09:02:41;;;;;;;9.52;2.42;;;17.00;50.20;;;;;;4990003;28;100885;-72
2022/01/31 09:05:08;;;;;;;7.07;2.38;;;17.00;50.30;;;;;;4991126;28;99876;-70
2022/01/31 09:07:35;;;;;;;6.10;2.30;;;17.00;50.30;;;;;;4991878;28;99892;-72
2022/01/31 09:10:03;;;;;;;7.45;1.90;;;17.00;50.30;;;;;;4993256;28;98547;-72
2022/01/31 09:12:32;;;;;;;9.07;2.20;;;16.90;50.40;;;;;;4991239;28;101303;-72
2022/01/31 09:14:58;;;;;;;6.88;1.98;;;16.90;50.40;;;;;;4990714;28;100258;-73
2022/01/31 09:17:23;;;;;;;9.95;2.55;;;16.90;50.40;;;;;;4991187;28;98964;-71
2022/01/31 09:19:49;;;;;;;7.20;2.50;;;16.90;50.50;;;;;;4991040;28;98692;-72
2022/01/31 09:22:15;;;;;;;8.40;2.40;;;16.90;50.50;;;;;;4991851;28;111395;-73
2022/01/31 09:24:41;;;;;;;6.75;2.17;;;16.80;50.40;;;;;;4991974;28;98777;-71
2022/01/31 09:27:08;;;;;;;7.60;2.25;;;16.80;50.40;;;;;;4990983;28;98628;-71
2022/01/31 09:29:34;;;;;;;9.00;2.40;;;16.80;50.40;;;;;;4991199;28;98668;-72
2022/01/31 09:32:03;;;;;;;8.68;2.58;;;16.80;50.40;;;;;;4989538;28;100637;-72
2022/01/31 09:34:30;;;;;;;7.68;2.28;;;16.80;50.40;;;;;;4989756;28;99535;-72
2022/01/31 09:36:56;;;;;;;6.60;2.15;;;16.80;50.40;;;;;;4991955;28;98570;-72
2022/01/31 09:39:22;;;;;;;7.53;2.63;;;16.80;50.40;;;;;;4992946;28;99082;-71
2022/01/31 09:41:53;;;;;;;9.43;2.38;;;16.70;50.40;;;;;;4996370;28;99280;-70
2022/01/31 09:47:07;;;;;;;9.50;2.40;;;16.70;50.40;;;;;;4991494;28;98623;-73
2022/01/31 09:49:33;;;;;;;7.93;2.47;;;16.70;50.50;;;;;;4989316;28;99669;-71
2022/01/31 09:51:59;;;;;;;9.30;2.60;;;16.70;50.50;;;;;;4989360;28;99734;-73
2022/01/31 09:54:27;;;;;;;9.75;2.50;;;16.70;50.50;;;;;;4989532;28;99151;-73
2022/01/31 09:56:54;;;;;;;6.90;2.33;;;16.70;50.40;;;;;;4989242;28;99327;-72
2022/01/31 09:59:21;;;;;;;7.40;2.63;;;16.70;50.50;;;;;;4989798;28;98975;-72
2022/01/31 10:01:54;;;;;;;7.60;2.20;;;16.70;50.50;;;;;;4989116;28;99151;-72
2022/01/31 10:04:25;;;;;;;8.05;2.58;;;16.70;50.50;;;;;;4990548;28;99999;-72
2022/01/31 10:06:54;;;;;;;9.38;2.65;;;16.60;50.40;;;;;;4990322;28;99060;-73
2022/01/31 10:09:23;;;;;;;8.25;2.60;;;16.60;50.40;;;;;;4989580;28;98979;-72
2022/01/31 10:12:03;;;;;;;9.93;2.95;;;16.60;50.40;;;;;;4989821;28;99204;-72
2022/01/31 10:17:30;;;;;;;8.38;2.78;;;16.60;50.50;;;;;;4989796;28;98642;-73
2022/01/31 10:20:00;;;;;;;8.13;2.40;;;16.60;50.50;;;;;;4988809;28;98661;-72
2022/01/31 10:22:28;;;;;;;10.00;2.92;;;16.60;50.50;;;;;;4969930;28;101037;-72
2022/01/31 10:24:55;;;;;;;8.18;2.65;;;16.60;50.50;;;;;;4987737;28;99878;-72
2022/01/31 10:27:22;;;;;;;8.00;2.60;;;16.60;50.60;;;;;;4988477;28;98671;-72
2022/01/31 10:29:53;;;;;;;6.22;2.55;;;16.60;50.60;;;;;;4987334;28;99005;-72
2022/01/31 10:32:31;;;;;;;8.77;2.55;;;16.60;50.50;;;;;;4988165;28;99549;-72
2022/01/31 10:35:00;;;;;;;8.63;2.88;;;16.60;50.60;;;;;;4988512;28;99791;-72
2022/01/31 10:37:29;;;;;;;10.05;2.90;;;16.50;50.50;;;;;;4988455;28;99383;-72
2022/01/31 10:53:40;;;;;;;7.50;2.30;;;16.50;50.60;;;;;;4987162;28;99610;-71
2022/01/31 10:56:07;;;;;;;7.10;2.58;;;16.50;50.60;;;;;;4988112;28;99529;-73
2022/01/31 10:58:33;;;;;;;8.45;2.70;;;16.50;50.60;;;;;;4987207;28;100404;-72
2022/01/31 11:01:13;;;;;;;8.18;2.40;;;16.50;50.80;;;;;;4988558;28;99134;-73
2022/01/31 11:03:40;;;;;;;8.15;2.47;;;16.50;50.70;;;;;;4988954;28;98961;-72
2022/01/31 11:06:08;;;;;;;8.77;2.70;;;16.40;50.70;;;;;;4988187;28;100126;-72
2022/01/31 11:08:34;;;;;;;7.97;2.83;;;16.40;50.70;;;;;;4987681;28;99055;-72
2022/01/31 11:11:00;;;;;;;8.77;2.92;;;16.40;50.70;;;;;;4988072;28;98863;-73
2022/01/31 11:13:27;;;;;;;8.98;2.80;;;16.40;50.70;;;;;;4986744;28;102076;-72
2022/01/31 11:15:55;;;;;;;7.53;2.78;;;16.40;50.70;;;;;;4986670;28;100987;-73
2022/01/31 11:18:22;;;;;;;7.47;2.72;;;16.40;50.70;;;;;;4987381;28;98578;-72
2022/01/31 11:20:49;;;;;;;11.95;3.13;;;16.40;50.70;;;;;;4987932;28;99022;-72
2022/01/31 11:23:18;;;;;;;7.72;2.70;;;16.40;50.70;;;;;;4986419;28;100432;-73
2022/01/31 11:25:52;;;;;;;9.35;2.95;;;16.40;50.80;;;;;;4988309;28;98989;-73
2022/01/31 11:28:30;;;;;;;9.65;2.42;;;16.40;50.80;;;;;;4991192;28;98982;-72
2022/01/31 11:30:56;;;;;;;8.55;3.00;;;16.40;50.90;;;;;;4992805;28;97805;-73
2022/01/31 11:33:23;;;;;;;10.02;3.15;;;16.40;50.90;;;;;;4989509;28;100280;-71
2022/01/31 11:35:49;;;;;;;8.73;2.92;;;16.40;50.90;;;;;;4986930;28;98675;-72
2022/01/31 11:38:18;;;;;;;7.95;2.60;;;16.30;50.90;;;;;;4986679;28;99897;-72
2022/01/31 11:40:44;;;;;;;9.13;3.33;;;16.30;50.80;;;;;;4988571;28;98558;-72
2022/01/31 11:43:11;;;;;;;10.02;3.08;;;16.30;50.90;;;;;;4986654;28;100259;-73
2022/01/31 11:45:39;;;;;;;10.65;3.20;;;16.30;51.00;;;;;;4986653;28;99068;-74
2022/01/31 11:48:17;;;;;;;12.32;2.65;;;16.30;50.90;;;;;;4969777;28;98697;-74
2022/01/31 11:50:45;;;;;;;10.25;3.05;;;16.30;50.90;;;;;;4986442;28;99141;-74
2022/01/31 11:53:11;;;;;;;9.88;3.50;;;16.30;51.00;;;;;;4986648;28;100166;-73
2022/01/31 11:55:40;;;;;;;11.23;3.35;;;16.30;51.00;;;;;;4987130;28;110284;-74
2022/01/31 11:58:08;;;;;;;10.45;3.63;;;16.30;51.00;;;;;;4987576;28;99112;-73
2022/01/31 12:00:40;;;;;;;9.75;3.40;;;16.30;51.00;;;;;;4988766;28;98494;-73
2022/01/31 12:03:09;;;;;;;10.77;3.20;;;16.30;51.00;;;;;;4989150;28;101318;-73
2022/01/31 12:05:36;;;;;;;7.22;3.13;;;16.30;51.00;;;;;;4990793;28;100046;-73
2022/01/31 12:08:14;;;;;;;13.18;3.45;;;16.30;51.00;;;;;;4989607;28;99104;-73
2022/01/31 12:10:46;;;;;;;10.07;3.25;;;16.20;51.00;;;;;;4991181;28;99079;-73
2022/01/31 12:13:38;;;;;;;11.35;3.65;;;16.30;51.10;;;;;;4989679;28;99263;-73
2022/01/31 12:16:24;;;;;;;10.00;3.38;;;16.30;51.00;;;;;;4990378;28;100917;-73
2022/01/31 12:24:27;;;;;;;13.40;3.75;;;16.20;51.10;;;;;;4990654;28;99544;-73
2022/01/31 12:26:54;;;;;;;12.27;3.55;;;16.20;51.10;;;;;;4989643;28;99922;-73
2022/01/31 12:29:26;;;;;;;10.65;3.33;;;16.20;51.10;;;;;;4989080;28;99556;-73
2022/01/31 12:31:54;;;;;;;12.20;3.60;;;16.20;51.10;;;;;;4989669;28;100827;-73
2022/01/31 12:34:21;;;;;;;10.82;3.75;;;16.20;51.20;;;;;;4989306;28;100109;-73
2022/01/31 12:36:47;;;;;;;12.20;3.95;;;16.20;51.10;;;;;;4989510;28;100352;-73
2022/01/31 12:39:28;;;;;;;12.43;3.67;;;16.20;51.10;;;;;;4989652;28;98890;-73
2022/01/31 12:42:04;;;;;;;10.77;3.50;;;16.20;51.10;;;;;;4991382;28;98804;-73
2022/01/31 12:44:33;;;;;;;13.40;3.72;;;16.20;51.10;;;;;;4989022;28;99120;-73
2022/01/31 12:47:11;;;;;;;11.13;3.25;;;16.20;51.10;;;;;;4989801;28;98855;-73
2022/01/31 12:49:36;;;;;;;10.32;3.30;;;16.20;51.10;;;;;;4988797;28;98694;-71
2022/01/31 12:52:07;;;;;;;11.90;3.80;;;16.20;51.20;;;;;;4990225;28;98579;-73
2022/01/31 12:54:35;;;;;;;13.35;3.83;;;16.20;51.20;;;;;;4988937;28;100501;-73
2022/01/31 12:57:13;;;;;;;12.80;3.83;;;16.20;51.20;;;;;;4988989;28;100569;-71
2022/01/31 12:59:40;;;;;;;12.57;3.70;;;16.20;51.10;;;;;;4989007;28;98576;-73
2022/01/31 13:02:10;;;;;;;14.70;4.10;;;16.20;51.20;;;;;;4989393;28;98683;-73
2022/01/31 13:04:37;;;;;;;11.30;3.78;;;16.20;51.20;;;;;;4989478;28;100161;-72
2022/01/31 13:07:08;;;;;;;13.73;3.70;;;16.20;51.30;;;;;;4989579;28;98967;-72
2022/01/31 13:09:38;;;;;;;12.70;3.92;;;16.20;51.30;;;;;;4989657;28;98926;-72
2022/01/31 13:12:15;;;;;;;11.55;4.07;;;16.20;51.30;;;;;;4989925;28;98588;-73
2022/01/31 13:14:49;;;;;;;10.25;3.55;;;16.20;51.30;;;;;;4990768;28;100677;-73
2022/01/31 13:17:21;;;;;;;11.77;3.80;;;16.20;51.30;;;;;;4992730;28;100701;-73
2022/01/31 13:19:59;;;;;;;12.48;3.72;;;16.10;51.30;;;;;;4974715;28;99438;-73
2022/01/31 13:22:39;;;;;;;11.73;3.70;;;16.10;51.30;;;;;;4990323;28;98700;-71
2022/01/31 13:25:13;;;;;;;12.15;3.70;;;16.10;51.30;;;;;;4989601;28;101088;-72
2022/01/31 13:27:42;;;;;;;14.32;3.38;;;16.10;51.40;;;;;;4989929;28;99265;-72
2022/01/31 13:30:20;;;;;;;11.60;3.65;;;16.10;51.40;;;;;;4971304;28;98736;-72
2022/01/31 13:32:47;;;;;;;13.60;3.70;;;16.10;51.40;;;;;;4990078;28;98882;-72
2022/01/31 13:35:14;;;;;;;11.82;3.72;;;16.10;51.40;;;;;;4990047;28;99201;-72
2022/01/31 13:37:42;;;;;;;14.02;3.85;;;16.10;51.40;;;;;;4989098;28;98868;-73
2022/01/31 13:40:11;;;;;;;12.20;3.45;;;16.10;51.50;;;;;;4988151;28;98700;-72
2022/01/31 13:42:39;;;;;;;11.90;3.75;;;16.10;51.40;;;;;;4989080;28;99860;-73
2022/01/31 13:45:36;;;;;;;12.35;3.90;;;16.10;51.40;;;;;;4988505;28;101467;-72
2022/01/31 13:48:08;;;;;;;12.65;3.95;;;16.10;52.40;;;;;;4988419;28;101054;-72
2022/01/31 13:50:41;;;;;;;17.90;4.45;;;16.10;51.40;;;;;;4988264;28;98617;-71
2022/01/31 13:53:31;;;;;;;;;;;16.10;51.60;;;;;;4990103;28;98987;-72
2022/01/31 13:55:58;;;;;;;14.52;4.45;;;16.00;51.40;;;;;;4976268;28;99396;-72
2022/01/31 13:58:36;;;;;;;10.20;3.90;;;16.00;51.50;;;;;;4987881;28;100083;-72
2022/01/31 14:01:01;;;;;;;12.02;3.90;;;16.10;51.60;;;;;;4987588;28;98670;-71
2022/01/31 14:03:29;;;;;;;12.43;4.15;;;16.10;51.60;;;;;;4988720;28;97889;-72
2022/01/31 14:05:56;;;;;;;15.18;4.20;;;16.00;51.50;;;;;;4988071;28;100331;-72
2022/01/31 14:08:43;;;;;;;13.88;4.13;;;16.10;51.60;;;;;;4987644;28;99276;-72
2022/01/31 14:11:20;;;;;;;10.23;3.97;;;16.00;51.50;;;;;;4987045;28;99661;-72
2022/01/31 14:13:52;;;;;;;14.02;4.32;;;16.00;52.60;;;;;;4989510;28;99058;-72
2022/01/31 14:16:27;;;;;;;12.27;3.85;;;16.00;51.50;;;;;;4969768;28;99335;-72
2022/01/31 14:18:55;;;;;;;12.85;4.03;;;16.00;51.50;;;;;;4987187;28;100615;-72
2022/01/31 14:21:22;;;;;;;12.05;4.00;;;16.00;51.70;;;;;;4987489;28;99260;-71
2022/01/31 14:23:50;;;;;;;12.80;4.10;;;16.00;51.50;;;;;;4987009;28;98671;-72
2022/01/31 14:26:32;;;;;;;10.55;3.63;;;16.00;51.60;;;;;;4970384;28;100714;-72
2022/01/31 14:28:57;;;;;;;14.57;4.00;;;16.00;51.60;;;;;;4987944;28;99201;-72
2022/01/31 14:31:33;;;;;;;13.68;4.05;;;15.90;51.50;;;;;;4987485;28;98647;-72
2022/01/31 14:34:14;;;;;;;12.13;4.00;;;16.00;51.60;;;;;;4987345;28;98857;-72
2022/01/31 14:36:42;;;;;;;13.77;3.95;;;16.00;51.60;;;;;;4968421;28;100905;-72
2022/01/31 14:42:06;;;;;;;12.20;3.78;;;16.00;51.60;;;;;;4987546;28;98667;-72
2022/01/31 14:49:48;;;;;;;9.85;3.13;;;16.20;51.60;;;;;;4987070;28;98835;-72
2022/01/31 14:52:14;;;;;;;7.88;2.80;;;16.30;51.40;;;;;;4987065;28;99031;-73
2022/01/31 14:54:41;;;;;;;7.22;2.88;;;16.40;51.10;;;;;;4988709;28;98332;-72
2022/01/31 14:57:09;;;;;;;12.45;3.85;;;16.50;51.00;;;;;;4987217;28;99116;-73
2022/01/31 14:59:35;;;;;;;9.68;3.55;;;16.50;50.80;;;;;;4987818;28;98999;-72
2022/01/31 15:02:02;;;;;;;8.05;3.05;;;16.50;50.70;;;;;;4989016;28;99452;-72
2022/01/31 15:04:32;;;;;;;10.40;3.15;;;16.60;50.60;;;;;;4991008;28;99024;-72
2022/01/31 15:06:58;;;;;;;8.57;3.38;;;16.60;50.60;;;;;;4992082;28;100330;-72
2022/01/31 15:09:24;;;;;;;9.88;3.28;;;16.60;50.50;;;;;;4988335;28;99165;-72